createdAt,value
2023-11-21T00:01:34.033Z,11.90
2023-11-21T00:03:37.659Z,14.10
2023-11-21T00:05:42.658Z,9.93
2023-11-21T00:07:45.408Z,10.77
2023-11-21T00:09:48.950Z,11.52
2023-11-21T00:11:52.181Z,9.13
2023-11-21T00:13:55.514Z,11.70
2023-11-21T00:16:00.894Z,14.35
2023-11-21T00:18:03.414Z,11.77
2023-11-21T00:20:08.577Z,9.93
2023-11-21T00:22:11.806Z,11.48
2023-11-21T00:24:26.459Z,11.88
2023-11-21T00:26:29.836Z,11.45
2023-11-21T00:28:33.725Z,11.20
2023-11-21T00:30:37.238Z,12.32
2023-11-21T00:32:41.236Z,12.65
2023-11-21T00:34:44.862Z,10.23
2023-11-21T00:36:48.345Z,7.88
2023-11-21T00:38:51.728Z,9.25
2023-11-21T00:40:57.559Z,9.15
2023-11-21T00:45:07.379Z,8.45
2023-11-21T00:47:11.123Z,10.57
2023-11-21T00:49:15.925Z,7.40
2023-11-21T00:51:19.335Z,7.82
2023-11-21T00:53:22.728Z,10.10
2023-11-21T00:55:26.512Z,8.65
2023-11-21T00:57:30.145Z,8.65
2023-11-21T00:59:32.628Z,7.60
2023-11-21T01:01:36.095Z,7.50
2023-11-21T01:03:39.700Z,6.38
2023-11-21T01:05:44.591Z,11.55
2023-11-21T01:07:47.963Z,8.38
2023-11-21T01:09:50.254Z,6.65
2023-11-21T01:11:54.925Z,8.15
2023-11-21T01:13:58.359Z,7.50
2023-11-21T01:16:01.531Z,8.50
2023-11-21T01:18:05.644Z,8.52
2023-11-21T01:20:13.186Z,8.20
2023-11-21T01:22:19.466Z,7.22
2023-11-21T01:24:22.848Z,5.85
2023-11-21T01:26:26.186Z,8.50
2023-11-21T01:28:29.784Z,5.50
2023-11-21T01:30:33.851Z,8.05
2023-11-21T01:32:36.259Z,7.03
2023-11-21T01:34:40.126Z,6.15
2023-11-21T01:36:43.427Z,6.63
2023-11-21T01:38:49.174Z,8.82
2023-11-21T01:40:52.462Z,4.32
2023-11-21T01:42:56.059Z,4.65
2023-11-21T01:44:59.540Z,5.82
2023-11-21T01:47:06.218Z,7.47
2023-11-21T01:49:10.881Z,5.65
2023-11-21T01:51:14.227Z,7.45
2023-11-21T01:53:17.813Z,5.25
2023-11-21T01:57:29.602Z,4.57
2023-11-21T01:59:38.026Z,5.97
2023-11-21T02:01:42.644Z,7.10
2023-11-21T02:03:45.989Z,9.52
2023-11-21T02:05:49.567Z,4.22
2023-11-21T02:07:53.635Z,4.72
2023-11-21T02:09:57.150Z,4.63
2023-11-21T02:12:02.356Z,5.60
2023-11-21T02:14:08.569Z,3.00
2023-11-21T02:16:14.041Z,6.47
2023-11-21T02:18:17.723Z,3.40
2023-11-21T02:20:21.053Z,3.35
2023-11-21T02:22:27.593Z,4.32
2023-11-21T02:24:32.957Z,7.82
2023-11-21T02:26:36.285Z,2.58
2023-11-21T02:28:40.119Z,6.57
2023-11-21T02:30:43.912Z,5.00
2023-11-21T02:32:49.186Z,4.00
2023-11-21T02:34:53.054Z,5.25
2023-11-21T02:36:56.806Z,5.68
2023-11-21T02:39:00.331Z,3.92
2023-11-21T02:41:05.431Z,4.25
2023-11-21T02:43:08.723Z,7.65
2023-11-21T02:45:14.226Z,3.67
2023-11-21T02:47:17.755Z,4.28
2023-11-21T02:49:21.112Z,6.05
2023-11-21T02:51:24.056Z,2.20
2023-11-21T02:53:27.332Z,4.40
2023-11-21T02:55:32.193Z,4.25
2023-11-21T02:57:37.012Z,3.35
2023-11-21T02:59:40.784Z,3.10
2023-11-21T03:01:44.309Z,2.70
2023-11-21T03:03:51.554Z,3.88
2023-11-21T03:05:54.846Z,2.55
2023-11-21T03:07:58.431Z,2.50
2023-11-21T03:10:01.821Z,2.30
2023-11-21T03:12:05.639Z,1.90
2023-11-21T03:14:10.344Z,3.80
2023-11-21T03:16:14.608Z,2.70
2023-11-21T03:18:18.603Z,4.53
2023-11-21T03:20:21.951Z,3.50
2023-11-21T03:22:25.640Z,4.05
2023-11-21T03:24:28.959Z,3.20
2023-11-21T03:26:32.239Z,2.95
2023-11-21T03:28:35.509Z,3.58
2023-11-21T03:30:40.164Z,4.50
2023-11-21T03:32:43.402Z,2.58
2023-11-21T03:35:04.956Z,6.03
2023-11-21T03:37:08.457Z,4.55
2023-11-21T03:39:11.709Z,3.65
2023-11-21T03:41:15.859Z,2.97
2023-11-21T03:43:19.193Z,2.45
2023-11-21T03:45:22.496Z,4.72
2023-11-21T03:47:28.683Z,2.65
2023-11-21T03:49:31.531Z,3.78
2023-11-21T03:51:35.484Z,4.57
2023-11-21T03:53:38.886Z,3.10
2023-11-21T03:55:42.310Z,3.30
2023-11-21T03:57:45.543Z,2.83
2023-11-21T03:59:47.941Z,3.08
2023-11-21T04:01:51.274Z,4.00
2023-11-21T04:03:55.953Z,5.03
2023-11-21T04:05:59.437Z,4.03
2023-11-21T04:08:02.738Z,2.88
2023-11-21T04:10:08.625Z,5.15
2023-11-21T04:12:11.980Z,3.30
2023-11-21T04:14:15.589Z,5.18
2023-11-21T04:16:19.922Z,3.50
2023-11-21T04:18:22.232Z,2.97
2023-11-21T04:20:27.116Z,3.92
2023-11-21T04:22:30.484Z,4.65
2023-11-21T04:24:33.841Z,3.20
2023-11-21T04:26:37.267Z,3.85
2023-11-21T04:28:40.610Z,7.50
2023-11-21T04:30:43.961Z,7.93
2023-11-21T04:32:47.327Z,4.47
2023-11-21T04:34:51.146Z,6.20
2023-11-21T04:36:55.882Z,2.53
2023-11-21T04:38:59.478Z,3.65
2023-11-21T04:41:03.958Z,3.45
2023-11-21T04:43:07.552Z,5.97
2023-11-21T04:45:13.852Z,3.70
2023-11-21T04:47:16.654Z,3.00
2023-11-21T04:49:20.708Z,3.90
2023-11-21T04:51:24.028Z,3.53
2023-11-21T04:53:28.827Z,4.28
2023-11-21T04:55:32.077Z,6.88
2023-11-21T04:57:35.526Z,6.15
2023-11-21T04:59:39.144Z,4.35
2023-11-21T05:01:42.465Z,4.35
2023-11-21T05:03:44.887Z,3.50
2023-11-21T05:05:48.864Z,4.63
2023-11-21T05:07:53.313Z,5.88
2023-11-21T05:09:57.411Z,6.63
2023-11-21T05:12:01.442Z,3.30
2023-11-21T05:14:06.447Z,5.15
2023-11-21T05:16:10.548Z,4.22
2023-11-21T05:18:15.152Z,3.17
2023-11-21T05:20:22.173Z,4.13
2023-11-21T05:22:25.992Z,3.08
2023-11-21T05:24:29.814Z,5.30
2023-11-21T05:26:34.669Z,2.47
2023-11-21T05:28:38.142Z,4.10
2023-11-21T05:30:41.488Z,3.50
2023-11-21T05:32:44.911Z,3.15
2023-11-21T05:34:48.444Z,3.65
2023-11-21T05:36:51.966Z,3.35
2023-11-21T05:38:54.211Z,6.05
2023-11-21T05:40:59.752Z,3.47
2023-11-21T05:43:06.539Z,3.55
2023-11-21T05:45:12.165Z,2.97
2023-11-21T05:47:16.102Z,3.42
2023-11-21T05:49:22.984Z,5.63
2023-11-21T05:51:26.404Z,5.70
2023-11-21T05:53:29.681Z,3.25
2023-11-21T05:55:33.178Z,3.17
2023-11-21T05:57:37.867Z,2.92
2023-11-21T05:59:42.712Z,2.90
2023-11-21T06:01:47.048Z,3.13
2023-11-21T06:03:50.875Z,3.40
2023-11-21T06:05:54.222Z,5.57
2023-11-21T06:08:00.546Z,6.03
2023-11-21T06:10:06.707Z,3.10
2023-11-21T06:12:10.462Z,4.65
2023-11-21T06:14:13.962Z,4.53
2023-11-21T06:16:20.715Z,8.73
2023-11-21T06:18:24.061Z,3.40
2023-11-21T06:20:27.554Z,3.30
2023-11-21T06:22:31.785Z,3.75
2023-11-21T06:24:35.153Z,7.30
2023-11-21T06:26:38.656Z,3.25
2023-11-21T06:28:42.437Z,3.47
2023-11-21T06:30:46.415Z,6.57
2023-11-21T06:32:52.397Z,13.68
2023-11-21T06:34:56.277Z,22.13
2023-11-21T06:36:59.916Z,21.85
2023-11-21T06:39:06.610Z,22.40
2023-11-21T06:41:10.217Z,29.63
2023-11-21T06:43:13.883Z,30.60
2023-11-21T06:45:18.319Z,37.22
2023-11-21T06:47:21.594Z,31.05
2023-11-21T06:49:27.093Z,23.02
2023-11-21T06:51:30.528Z,25.52
2023-11-21T06:53:35.614Z,23.88
2023-11-21T06:55:39.865Z,10.23
2023-11-21T06:57:44.179Z,15.15
2023-11-21T06:59:47.484Z,20.80
2023-11-21T07:01:51.097Z,19.80
2023-11-21T07:03:54.624Z,17.38
2023-11-21T07:05:59.361Z,12.93
2023-11-21T07:08:05.865Z,11.05
2023-11-21T07:10:10.519Z,10.20
2023-11-21T07:12:13.896Z,12.82
2023-11-21T07:14:18.148Z,13.48
2023-11-21T07:16:22.192Z,10.20
2023-11-21T07:18:24.662Z,17.25
2023-11-21T07:20:28.315Z,11.85
2023-11-21T07:22:33.126Z,11.18
2023-11-21T07:24:37.751Z,10.18
2023-11-21T07:26:41.116Z,12.50
2023-11-21T07:28:44.445Z,6.18
2023-11-21T07:30:47.797Z,12.13
2023-11-21T07:32:50.335Z,10.25
2023-11-21T07:34:53.982Z,9.65
2023-11-21T07:36:57.383Z,9.10
2023-11-21T07:39:03.809Z,8.57
2023-11-21T07:41:16.094Z,11.27
2023-11-21T07:43:27.131Z,8.77
2023-11-21T07:45:30.483Z,9.13
2023-11-21T07:47:35.816Z,7.40
2023-11-21T07:49:39.535Z,8.30
2023-11-21T07:51:43.021Z,7.73
2023-11-21T07:53:46.344Z,5.90
2023-11-21T07:55:51.160Z,5.83
2023-11-21T07:57:54.557Z,5.53
2023-11-21T07:59:57.957Z,5.97
2023-11-21T08:02:01.701Z,5.57
2023-11-21T08:04:05.791Z,6.43
2023-11-21T08:06:10.136Z,6.00
2023-11-21T08:08:13.594Z,9.63
2023-11-21T08:10:17.399Z,6.30
2023-11-21T08:12:22.589Z,8.60
2023-11-21T08:14:26.826Z,9.33
2023-11-21T08:16:30.424Z,7.07
2023-11-21T08:18:33.790Z,9.00
2023-11-21T08:20:39.891Z,7.10
2023-11-21T08:22:43.252Z,6.20
2023-11-21T08:24:48.062Z,6.03
2023-11-21T08:26:53.553Z,6.37
2023-11-21T08:28:58.314Z,8.67
2023-11-21T08:31:03.230Z,9.70
2023-11-21T08:33:06.687Z,6.57
2023-11-21T08:35:11.447Z,5.63
2023-11-21T08:37:17.322Z,5.87
2023-11-21T08:39:20.835Z,5.57
2023-11-21T08:41:24.212Z,8.43
2023-11-21T08:43:28.726Z,6.13
2023-11-21T08:45:35.584Z,5.67
2023-11-21T08:47:38.991Z,4.17
2023-11-21T08:49:42.301Z,11.30
2023-11-21T08:51:47.202Z,10.70
2023-11-21T08:53:50.848Z,4.10
2023-11-21T08:55:55.041Z,4.60
2023-11-21T08:58:02.021Z,4.40
2023-11-21T09:00:08.988Z,5.90
2023-11-21T09:02:16.800Z,5.50
2023-11-21T09:04:20.266Z,5.60
2023-11-21T09:06:23.550Z,12.30
2023-11-21T09:08:26.852Z,7.80
2023-11-21T09:10:30.177Z,6.53
2023-11-21T09:12:34.029Z,5.70
2023-11-21T09:14:37.321Z,6.47
2023-11-21T09:16:41.611Z,6.77
2023-11-21T09:18:47.469Z,9.73
2023-11-21T09:20:50.880Z,4.93
2023-11-21T09:22:55.457Z,5.00
2023-11-21T09:24:59.380Z,5.10
2023-11-21T09:27:02.927Z,5.73
2023-11-21T09:29:06.228Z,8.30
2023-11-21T09:31:10.813Z,6.70
2023-11-21T09:33:14.258Z,5.80
2023-11-21T09:35:19.559Z,5.97
2023-11-21T09:37:22.865Z,4.43
2023-11-21T09:39:26.110Z,7.27
2023-11-21T09:41:40.687Z,5.50
2023-11-21T09:43:44.825Z,7.80
2023-11-21T09:45:49.575Z,6.37
2023-11-21T09:47:55.376Z,6.90
2023-11-21T09:50:02.239Z,10.73
2023-11-21T09:52:10.249Z,8.63
2023-11-21T09:54:14.620Z,5.83
2023-11-21T09:56:24.718Z,6.20
2023-11-21T09:58:28.684Z,6.70
2023-11-21T10:00:34.258Z,7.80
2023-11-21T10:02:39.716Z,15.17
2023-11-21T10:04:42.372Z,6.90
2023-11-21T10:06:47.386Z,9.70
2023-11-21T10:08:55.979Z,7.50
2023-11-21T10:11:00.603Z,4.70
2023-11-21T10:13:07.911Z,8.63
2023-11-21T10:15:16.459Z,9.17
2023-11-21T10:17:21.144Z,5.17
2023-11-21T10:19:25.043Z,12.33
2023-11-21T10:21:29.473Z,13.70
2023-11-21T10:23:33.162Z,7.93
2023-11-21T10:25:38.864Z,7.70
2023-11-21T10:27:42.421Z,6.43
2023-11-21T10:29:45.993Z,5.83
2023-11-21T10:31:52.429Z,6.90
2023-11-21T10:33:56.169Z,6.97
2023-11-21T10:36:00.921Z,5.80
2023-11-21T10:38:04.325Z,13.73
2023-11-21T10:40:08.686Z,6.60
2023-11-21T10:42:13.713Z,6.30
2023-11-21T10:44:22.484Z,6.37
2023-11-21T10:46:28.077Z,4.97
2023-11-21T10:48:31.941Z,7.10
2023-11-21T10:50:36.255Z,6.60
2023-11-21T10:52:40.771Z,7.50
2023-11-21T10:54:44.263Z,5.20
2023-11-21T10:56:48.622Z,7.80
2023-11-21T10:58:52.724Z,5.47
2023-11-21T11:00:56.457Z,6.00
2023-11-21T11:03:00.671Z,5.03
2023-11-21T11:05:07.533Z,6.90
2023-11-21T11:07:13.243Z,5.90
2023-11-21T11:09:17.632Z,7.63
2023-11-21T11:11:21.206Z,8.77
2023-11-21T11:13:25.474Z,8.37
2023-11-21T11:15:31.191Z,8.40
2023-11-21T11:17:34.467Z,5.17
2023-11-21T11:19:38.767Z,6.90
2023-11-21T11:21:52.883Z,4.30
2023-11-21T11:24:09.002Z,7.00
2023-11-21T11:26:19.431Z,4.27
2023-11-21T11:28:24.205Z,7.00
2023-11-21T11:30:40.064Z,4.63
2023-11-21T11:32:48.451Z,6.63
2023-11-21T11:34:57.008Z,4.90
2023-11-21T11:37:03.665Z,4.80
2023-11-21T11:39:28.849Z,6.10
2023-11-21T11:41:35.622Z,4.83
2023-11-21T11:43:45.519Z,7.57
2023-11-21T11:45:53.245Z,5.10
2023-11-21T11:47:59.664Z,9.57
2023-11-21T11:50:08.247Z,6.83
2023-11-21T11:52:30.585Z,3.87
2023-11-21T11:54:37.973Z,5.33
2023-11-21T11:56:42.231Z,4.80
2023-11-21T11:58:46.133Z,4.80
2023-11-21T12:00:54.610Z,4.20
2023-11-21T12:03:00.905Z,7.37
2023-11-21T12:05:10.628Z,3.73
2023-11-21T12:07:16.761Z,9.53
2023-11-21T12:09:21.426Z,5.23
2023-11-21T12:11:33.024Z,7.53
2023-11-21T12:13:37.167Z,5.23
2023-11-21T12:15:42.781Z,5.20
2023-11-21T12:17:47.943Z,6.07
2023-11-21T12:19:53.670Z,6.57
2023-11-21T12:21:57.256Z,5.93
2023-11-21T12:24:01.412Z,4.17
2023-11-21T12:26:05.073Z,5.50
2023-11-21T12:28:08.613Z,6.93
2023-11-21T12:30:16.699Z,7.90
2023-11-21T12:32:20.763Z,5.40
2023-11-21T12:34:25.733Z,5.07
2023-11-21T12:36:30.441Z,6.77
2023-11-21T12:38:37.113Z,4.23
2023-11-21T12:40:41.039Z,7.83
2023-11-21T12:42:45.024Z,5.67
2023-11-21T12:44:49.296Z,4.63
2023-11-21T12:46:54.390Z,3.23
2023-11-21T12:48:57.985Z,5.60
2023-11-21T12:51:04.246Z,4.07
2023-11-21T12:53:09.818Z,4.57
2023-11-21T12:55:16.190Z,4.97
2023-11-21T12:57:19.733Z,6.17
2023-11-21T12:59:23.847Z,7.60
2023-11-21T13:01:30.818Z,4.40
2023-11-21T13:03:35.403Z,7.80
2023-11-21T13:05:40.739Z,5.90
2023-11-21T13:07:48.219Z,4.77
2023-11-21T13:09:54.930Z,6.27
2023-11-21T13:12:04.618Z,3.73
2023-11-21T13:14:08.595Z,4.13
2023-11-21T13:16:12.349Z,4.33
2023-11-21T13:18:17.014Z,4.70
2023-11-21T13:20:21.360Z,10.87
2023-11-21T13:22:28.811Z,7.87
2023-11-21T13:24:33.973Z,2.70
2023-11-21T13:26:37.697Z,4.27
2023-11-21T13:28:42.828Z,4.27
2023-11-21T13:30:45.896Z,5.73
2023-11-21T13:32:52.549Z,3.40
2023-11-21T13:34:55.679Z,3.13
2023-11-21T13:37:02.313Z,7.63
2023-11-21T13:39:09.384Z,5.53
2023-11-21T13:41:15.634Z,3.23
2023-11-21T13:43:21.949Z,4.43
2023-11-21T13:45:26.229Z,6.63
2023-11-21T13:47:32.307Z,4.00
2023-11-21T13:49:41.909Z,3.30
2023-11-21T13:51:46.563Z,4.90
2023-11-21T13:53:53.470Z,4.20
2023-11-21T13:55:58.870Z,5.27
2023-11-21T13:58:10.914Z,4.87
2023-11-21T14:00:35.966Z,3.37
2023-11-21T14:02:43.834Z,5.47
2023-11-21T14:04:56.389Z,4.60
2023-11-21T14:07:02.734Z,3.70
2023-11-21T14:09:07.912Z,8.20
2023-11-21T14:11:12.535Z,3.80
2023-11-21T14:13:18.513Z,4.27
2023-11-21T14:15:22.390Z,5.57
2023-11-21T14:17:26.297Z,6.47
2023-11-21T14:19:33.740Z,9.63
2023-11-21T14:21:36.877Z,7.47
2023-11-21T14:23:40.698Z,5.07
2023-11-21T14:25:47.073Z,3.53
2023-11-21T14:27:50.773Z,7.43
2023-11-21T14:29:55.687Z,3.37
2023-11-21T14:31:59.486Z,3.33
2023-11-21T14:34:03.585Z,3.60
2023-11-21T14:36:09.347Z,2.93
2023-11-21T14:38:15.988Z,3.83
2023-11-21T14:40:18.948Z,2.50
2023-11-21T14:42:26.697Z,4.30
2023-11-21T14:44:34.097Z,3.50
2023-11-21T14:46:40.844Z,3.60
2023-11-21T14:48:44.551Z,3.10
2023-11-21T14:51:11.059Z,5.40
2023-11-21T14:53:15.433Z,4.40
2023-11-21T14:55:22.550Z,3.57
2023-11-21T14:57:28.201Z,4.37
2023-11-21T14:59:30.808Z,9.53
2023-11-21T15:01:46.032Z,3.80
2023-11-21T15:03:51.604Z,4.50
2023-11-21T15:05:58.092Z,3.00
2023-11-21T15:08:14.469Z,6.10
2023-11-21T15:10:21.425Z,9.10
2023-11-21T15:12:27.513Z,2.70
2023-11-21T15:14:33.154Z,4.20
2023-11-21T15:16:40.150Z,6.40
2023-11-21T15:18:44.034Z,5.15
2023-11-21T15:20:48.955Z,4.87
2023-11-21T15:22:52.974Z,4.72
2023-11-21T15:24:57.159Z,3.93
2023-11-21T15:27:00.819Z,8.15
2023-11-21T15:29:04.611Z,4.40
2023-11-21T15:31:09.480Z,8.70
2023-11-21T15:33:13.417Z,6.00
2023-11-21T15:35:17.141Z,13.13
2023-11-21T15:37:22.791Z,9.38
2023-11-21T15:39:30.945Z,7.87
2023-11-21T15:41:35.170Z,8.20
2023-11-21T15:43:39.190Z,4.95
2023-11-21T15:45:42.953Z,6.82
2023-11-21T15:47:46.449Z,7.93
2023-11-21T15:49:51.432Z,8.25
2023-11-21T15:51:54.163Z,9.95
2023-11-21T15:53:59.495Z,7.97
2023-11-21T15:56:05.361Z,10.13
2023-11-21T15:58:07.968Z,13.15
2023-11-21T16:00:17.310Z,10.23
2023-11-21T16:02:21.393Z,12.93
2023-11-21T16:04:24.768Z,12.17
2023-11-21T16:06:28.513Z,11.85
2023-11-21T16:08:31.223Z,14.98
2023-11-21T16:10:37.428Z,17.65
2023-11-21T16:12:42.309Z,15.45
2023-11-21T16:14:47.858Z,19.02
2023-11-21T16:16:51.669Z,16.40
2023-11-21T16:18:55.286Z,12.57
2023-11-21T16:20:58.819Z,8.65
2023-11-21T16:23:02.364Z,8.60
2023-11-21T16:25:11.117Z,8.73
2023-11-21T16:27:16.656Z,9.70
2023-11-21T16:29:20.155Z,7.22
2023-11-21T16:31:27.087Z,5.97
2023-11-21T16:33:30.670Z,8.65
2023-11-21T16:35:34.433Z,7.20
2023-11-21T16:37:38.020Z,7.40
2023-11-21T16:39:43.400Z,7.93
2023-11-21T16:41:47.129Z,8.13
2023-11-21T16:43:52.240Z,15.77
2023-11-21T16:45:55.889Z,11.70
2023-11-21T16:47:59.484Z,10.82
2023-11-21T16:50:03.626Z,10.75
2023-11-21T16:52:08.469Z,12.10
2023-11-21T16:54:12.168Z,14.68
2023-11-21T16:56:14.906Z,13.63
2023-11-21T16:58:18.553Z,16.65
2023-11-21T17:00:24.198Z,26.08
2023-11-21T17:02:26.990Z,17.42
2023-11-21T17:04:30.492Z,20.70
2023-11-21T17:06:34.210Z,16.33
2023-11-21T17:08:37.790Z,18.42
2023-11-21T17:10:41.569Z,13.05
2023-11-21T17:12:44.371Z,13.55
2023-11-21T17:14:50.308Z,13.80
2023-11-21T17:16:55.369Z,14.18
2023-11-21T17:18:57.912Z,16.02
2023-11-21T17:21:01.524Z,14.48
2023-11-21T17:23:05.577Z,15.90
2023-11-21T17:25:10.029Z,17.90
2023-11-21T17:27:13.714Z,23.30
2023-11-21T17:29:17.363Z,26.95
2023-11-21T17:31:20.855Z,27.45
2023-11-21T17:33:26.166Z,25.48
2023-11-21T17:35:29.720Z,29.77
2023-11-21T17:37:33.367Z,24.27
2023-11-21T17:39:36.256Z,25.67
2023-11-21T17:41:39.843Z,22.60
2023-11-21T17:43:43.225Z,23.95
2023-11-21T17:45:48.172Z,27.83
2023-11-21T17:47:51.751Z,19.45
2023-11-21T17:49:57.526Z,20.92
2023-11-21T17:52:03.979Z,16.00
2023-11-21T17:54:08.050Z,17.38
2023-11-21T17:56:16.397Z,15.82
2023-11-21T17:58:19.253Z,16.05
2023-11-21T18:00:26.916Z,17.33
2023-11-21T18:02:34.147Z,16.75
2023-11-21T18:04:39.808Z,15.25
2023-11-21T18:06:45.849Z,18.45
2023-11-21T18:08:49.970Z,15.32
2023-11-21T18:10:54.193Z,17.40
2023-11-21T18:12:57.753Z,13.90
2023-11-21T18:15:01.260Z,14.82
2023-11-21T18:17:05.225Z,16.27
2023-11-21T18:19:09.688Z,19.67
2023-11-21T18:21:13.622Z,16.75
2023-11-21T18:23:18.546Z,19.25
2023-11-21T18:25:22.097Z,18.52
2023-11-21T18:27:29.058Z,17.38
2023-11-21T18:29:32.546Z,15.25
2023-11-21T18:31:36.194Z,15.13
2023-11-21T18:33:38.792Z,18.98
2023-11-21T18:35:42.353Z,18.15
2023-11-21T18:37:47.513Z,13.65
2023-11-21T18:39:52.095Z,13.00
2023-11-21T18:41:56.643Z,16.20
2023-11-21T18:44:00.772Z,19.95
2023-11-21T18:46:03.955Z,23.30
2023-11-21T18:48:11.918Z,18.52
2023-11-21T18:50:18.497Z,18.08
2023-11-21T18:52:22.186Z,17.17
2023-11-21T18:54:25.695Z,18.75
2023-11-21T18:56:32.264Z,20.10
2023-11-21T18:58:37.472Z,13.65
2023-11-21T19:00:42.002Z,24.38
2023-11-21T19:02:47.083Z,16.63
2023-11-21T19:04:49.904Z,17.63
2023-11-21T19:06:54.212Z,14.82
2023-11-21T19:08:58.218Z,13.35
2023-11-21T19:11:01.894Z,14.48
2023-11-21T19:13:08.336Z,17.95
2023-11-21T19:15:14.255Z,12.23
2023-11-21T19:17:19.327Z,15.00
2023-11-21T19:19:23.073Z,17.63
2023-11-21T19:21:26.781Z,18.40
2023-11-21T19:23:29.402Z,17.17
2023-11-21T19:25:34.949Z,14.00
2023-11-21T19:27:38.603Z,16.02
2023-11-21T19:29:43.543Z,21.08
2023-11-21T19:31:47.863Z,13.10
2023-11-21T19:33:52.274Z,18.25
2023-11-21T19:35:56.043Z,14.05
2023-11-21T19:37:59.748Z,18.88
2023-11-21T19:40:02.520Z,16.65
2023-11-21T19:42:06.761Z,18.50
2023-11-21T19:44:10.364Z,23.58
2023-11-21T19:46:15.823Z,13.73
2023-11-21T19:48:22.251Z,15.48
2023-11-21T19:50:24.976Z,15.90
2023-11-21T19:52:28.507Z,15.32
2023-11-21T19:54:32.537Z,16.38
2023-11-21T19:56:36.743Z,21.25
2023-11-21T19:58:40.714Z,22.83
2023-11-21T20:00:44.577Z,26.25
2023-11-21T20:02:50.719Z,26.00
2023-11-21T20:04:54.543Z,28.60
2023-11-21T20:06:58.120Z,24.50
2023-11-21T20:09:04.822Z,27.25
2023-11-21T20:11:09.111Z,30.73
2023-11-21T20:13:12.658Z,28.40
2023-11-21T20:15:16.246Z,33.85
2023-11-21T20:17:19.683Z,21.02
2023-11-21T20:19:25.103Z,25.67
2023-11-21T20:21:28.613Z,24.70
2023-11-21T20:23:32.950Z,29.05
2023-11-21T20:25:36.874Z,20.80
2023-11-21T20:27:40.526Z,24.17
2023-11-21T20:29:44.254Z,27.02
2023-11-21T20:31:46.888Z,25.80
2023-11-21T20:33:50.446Z,24.02
2023-11-21T20:35:55.435Z,34.10
2023-11-21T20:37:59.068Z,31.33
2023-11-21T20:40:04.983Z,30.75
2023-11-21T20:42:10.170Z,29.17
2023-11-21T20:44:13.937Z,29.90
2023-11-21T20:46:16.421Z,17.52
2023-11-21T20:48:21.002Z,24.30
2023-11-21T20:50:24.953Z,21.85
2023-11-21T20:52:29.804Z,33.28
2023-11-21T20:54:33.333Z,29.40
2023-11-21T20:56:37.117Z,25.63
2023-11-21T20:58:39.696Z,22.60
2023-11-21T21:00:43.426Z,26.15
2023-11-21T21:02:50.846Z,24.17
2023-11-21T21:04:54.475Z,43.20
2023-11-21T21:07:01.337Z,33.20
2023-11-21T21:09:06.461Z,23.45
2023-11-21T21:11:10.898Z,23.20
2023-11-21T21:13:15.241Z,24.30
2023-11-21T21:15:18.923Z,21.20
2023-11-21T21:17:22.491Z,16.92
2023-11-21T21:19:28.776Z,19.08
2023-11-21T21:21:34.830Z,17.20
2023-11-21T21:23:38.322Z,17.08
2023-11-21T21:25:43.356Z,17.23
2023-11-21T21:27:47.158Z,16.48
2023-11-21T21:29:51.447Z,16.10
2023-11-21T21:31:55.162Z,15.00
2023-11-21T21:33:58.646Z,15.80
2023-11-21T21:36:02.539Z,18.48
2023-11-21T21:38:06.161Z,13.50
2023-11-21T21:40:09.852Z,12.48
2023-11-21T21:42:14.967Z,13.30
2023-11-21T21:44:17.526Z,15.70
2023-11-21T21:46:22.179Z,16.67
2023-11-21T21:48:25.867Z,15.48
2023-11-21T21:50:30.861Z,12.82
2023-11-21T21:52:37.933Z,13.10
2023-11-21T21:54:42.052Z,11.40
2023-11-21T21:56:45.490Z,12.07
2023-11-21T21:58:50.941Z,17.58
2023-11-21T22:00:55.684Z,14.40
2023-11-21T22:02:58.664Z,12.55
2023-11-21T22:05:02.664Z,13.88
2023-11-21T22:07:07.501Z,9.70
2023-11-21T22:09:12.182Z,14.90
2023-11-21T22:11:15.812Z,15.95
2023-11-21T22:13:19.509Z,10.93
2023-11-21T22:15:24.433Z,15.68
2023-11-21T22:17:28.849Z,13.05
2023-11-21T22:19:32.448Z,15.95
2023-11-21T22:21:36.073Z,12.82
2023-11-21T22:23:39.593Z,18.02
2023-11-21T22:25:42.093Z,14.70
2023-11-21T22:27:45.732Z,19.70
2023-11-21T22:29:49.499Z,17.40
2023-11-21T22:31:54.376Z,19.35
2023-11-21T22:33:58.225Z,18.73
2023-11-21T22:36:02.204Z,20.42
2023-11-21T22:38:06.001Z,24.70
2023-11-21T22:40:10.516Z,19.33
2023-11-21T22:42:14.155Z,30.23
2023-11-21T22:44:17.567Z,13.98
2023-11-21T22:46:21.253Z,15.43
2023-11-21T22:48:26.471Z,12.13
2023-11-21T22:50:30.252Z,15.98
2023-11-21T22:52:34.087Z,14.98
2023-11-21T22:54:37.729Z,13.82
2023-11-21T22:56:41.221Z,12.65
2023-11-21T22:58:44.894Z,12.45
2023-11-21T23:00:48.389Z,10.50
2023-11-21T23:02:53.513Z,10.98
2023-11-21T23:04:58.620Z,8.45
2023-11-21T23:07:02.182Z,9.13
2023-11-21T23:09:05.832Z,5.18
2023-11-21T23:11:09.411Z,8.18
2023-11-21T23:13:13.361Z,7.47
2023-11-21T23:15:17.572Z,12.73
2023-11-21T23:17:21.357Z,6.22
2023-11-21T23:19:25.001Z,7.22
2023-11-21T23:21:30.550Z,5.93
2023-11-21T23:23:34.084Z,6.97
2023-11-21T23:25:39.332Z,7.28
2023-11-21T23:27:42.933Z,10.55
2023-11-21T23:29:51.193Z,7.50
2023-11-21T23:31:54.907Z,5.13
2023-11-21T23:33:58.697Z,7.03
2023-11-21T23:36:02.495Z,7.10
2023-11-21T23:38:07.516Z,6.97
2023-11-21T23:40:13.250Z,9.23
2023-11-21T23:42:18.421Z,7.43
2023-11-21T23:44:22.037Z,7.28
2023-11-21T23:46:25.757Z,9.02
2023-11-21T23:48:29.326Z,8.63
2023-11-21T23:50:33.191Z,10.60
2023-11-21T23:52:36.712Z,9.90
2023-11-21T23:54:42.158Z,7.45
2023-11-21T23:56:45.901Z,11.68
2023-11-21T23:58:49.655Z,9.38
